You must use a browser capable of displaying tables to view this page.

The table shows the data used to make the storm track maps. Click on the storm name in the first row to get a close up view of the storm track.

Name Date Time (UT) Lat (degrees) Lon (degrees) Course (true) Speed (knots) Pressure (mb) Wind (knots) Gusts (knots) Type Actual / Forecast WMO
NANMADOL 2011-08-22 18:00 15.0N 128.1E 020 05 ??? 025 035 DEP ACT WTPN31
NANMADOL 2011-08-23 00:00 15.7N 127.4E 340 06 ??? 030 040 DEP ACT WTPN31
NANMADOL 2011-08-23 06:00 16.0N 127.4E 350 05 ??? 035 045 STO ACT WTPN31
NANMADOL 2011-08-23 12:00 16.0N 127.7E 360 03 ??? 045 055 STO ACT WTPN31
NANMADOL 2011-08-23 18:00 16.2N 127.8E 025 02 ??? 045 055 STO ACT WTPN31
NANMADOL 2011-08-24 00:00 16.4N 127.7E 360 03 ??? 050 065 STO ACT WTPN31
NANMADOL 2011-08-24 06:00 16.3N 126.7E 315 04 ??? 055 070 STO ACT WTPN31
NANMADOL 2011-08-24 12:00 16.0N 126.5E 245 02 ??? 060 075 STO ACT WTPN31
NANMADOL 2011-08-24 18:00 16.0N 126.2E 270 03 ??? 065 080 TYP ACT WTPN31
NANMADOL 2011-08-25 00:00 16.0N 125.6E 270 05 ??? 075 090 TYP ACT WTPN31
NANMADOL 2011-08-25 06:00 16.3N 125.1E 300 06 ??? 080 100 TYP ACT WTPN31
NANMADOL 2011-08-25 12:00 16.6N 124.6E 300 06 ??? 090 110 TYP ACT WTPN31
NANMADOL 2011-08-25 18:00 16.5N 124.0E 270 05 ??? 115 140 TYP ACT WTPN31
NANMADOL 2011-08-26 00:00 16.7N 123.9E 335 02 ??? 130 160 TYP ACT WTPN31
NANMADOL 2011-08-26 06:00 17.2N 123.6E 330 06 ??? 135 165 TYP ACT WTPN31
NANMADOL 2011-08-26 12:00 17.7N 123.3E 330 06 ??? 135 165 TYP ACT WTPN31
NANMADOL 2011-08-26 18:00 18.0N 122.7E 305 07 ??? 120 145 TYP ACT WTPN31
NANMADOL 2011-08-27 06:00 18.9N 122.1E ??? ??? ??? 064 150 ??? FOR WTPN31
NAANMADOL 2011-08-28 00:00 20.9N 122.3E ??? ??? ??? 064 170 ??? FOR WTPN31
NANMADOL 2011-08-28 12:00 21.7N 122.4E ??? ??? ??? 064 160 ??? FOR WTPN31
NANMADOL 2011-08-29 12:00 22.7N 122.8E ??? ??? ??? 064 140 ??? FOR WTPN31
NANMADOL 2011-08-30 12:00 23.8N 123.6E ??? ??? ??? 105 130 ??? FOR WTPN31
NANMADOL 2011-08-31 12:00 24.7N 125.0E ??? ??? ??? 105 130 ??? FOR WTPN31


Home Back

metcalf@akala.ifa.hawaii.edu